sensor_id;sensor_type;location;lat;lon;timestamp;P1;durP1;ratioP1;P2;durP2;ratioP2
52414;SDS011;38340;52.964;6.086;2022-12-29T00:01:28;9.68;;;8.77;;
52414;SDS011;38340;52.964;6.086;2022-12-29T00:03:54;10.93;;;9.32;;
52414;SDS011;38340;52.964;6.086;2022-12-29T00:06:20;10.35;;;9.45;;
52414;SDS011;38340;52.964;6.086;2022-12-29T00:08:45;10.90;;;9.40;;
52414;SDS011;38340;52.964;6.086;2022-12-29T00:11:12;9.60;;;8.55;;
52414;SDS011;38340;52.964;6.086;2022-12-29T00:13:46;10.45;;;9.52;;
52414;SDS011;38340;52.964;6.086;2022-12-29T00:16:31;10.23;;;9.32;;
52414;SDS011;38340;52.964;6.086;2022-12-29T00:18:57;10.32;;;9.38;;
52414;SDS011;38340;52.964;6.086;2022-12-29T00:21:23;9.93;;;9.02;;
52414;SDS011;38340;52.964;6.086;2022-12-29T00:24:09;10.43;;;9.52;;
52414;SDS011;38340;52.964;6.086;2022-12-29T00:27:20;10.02;;;8.82;;
52414;SDS011;38340;52.964;6.086;2022-12-29T00:29:57;10.20;;;9.20;;
52414;SDS011;38340;52.964;6.086;2022-12-29T00:32:41;9.88;;;8.98;;
52414;SDS011;38340;52.964;6.086;2022-12-29T00:35:30;11.47;;;9.20;;
52414;SDS011;38340;52.964;6.086;2022-12-29T00:38:02;10.10;;;9.10;;
52414;SDS011;38340;52.964;6.086;2022-12-29T00:40:48;9.95;;;8.95;;
52414;SDS011;38340;52.964;6.086;2022-12-29T00:43:33;8.93;;;8.13;;
52414;SDS011;38340;52.964;6.086;2022-12-29T00:46:17;8.90;;;8.10;;
52414;SDS011;38340;52.964;6.086;2022-12-29T00:48:42;8.95;;;8.05;;
52414;SDS011;38340;52.964;6.086;2022-12-29T00:51:27;9.45;;;8.57;;
52414;SDS011;38340;52.964;6.086;2022-12-29T00:53:52;9.23;;;8.25;;
52414;SDS011;38340;52.964;6.086;2022-12-29T00:56:18;8.90;;;8.10;;
52414;SDS011;38340;52.964;6.086;2022-12-29T00:58:44;9.77;;;8.38;;
52414;SDS011;38340;52.964;6.086;2022-12-29T01:01:09;8.98;;;7.63;;
52414;SDS011;38340;52.964;6.086;2022-12-29T01:03:35;8.30;;;7.55;;
52414;SDS011;38340;52.964;6.086;2022-12-29T01:06:02;8.57;;;7.78;;
52414;SDS011;38340;52.964;6.086;2022-12-29T01:08:29;8.85;;;8.05;;
52414;SDS011;38340;52.964;6.086;2022-12-29T01:11:02;8.77;;;7.97;;
52414;SDS011;38340;52.964;6.086;2022-12-29T01:13:29;8.32;;;7.60;;
52414;SDS011;38340;52.964;6.086;2022-12-29T01:15:55;7.85;;;7.20;;
52414;SDS011;38340;52.964;6.086;2022-12-29T01:18:22;8.90;;;8.00;;
52414;SDS011;38340;52.964;6.086;2022-12-29T01:20:49;8.73;;;7.78;;
52414;SDS011;38340;52.964;6.086;2022-12-29T01:23:15;8.70;;;7.82;;
52414;SDS011;38340;52.964;6.086;2022-12-29T01:25:41;8.27;;;7.57;;
52414;SDS011;38340;52.964;6.086;2022-12-29T01:28:07;8.15;;;7.45;;
52414;SDS011;38340;52.964;6.086;2022-12-29T01:30:36;8.35;;;7.55;;
52414;SDS011;38340;52.964;6.086;2022-12-29T01:33:02;7.80;;;6.93;;
52414;SDS011;38340;52.964;6.086;2022-12-29T01:35:28;7.70;;;7.00;;
52414;SDS011;38340;52.964;6.086;2022-12-29T01:37:54;7.90;;;7.10;;
52414;SDS011;38340;52.964;6.086;2022-12-29T01:40:19;9.23;;;7.10;;
52414;SDS011;38340;52.964;6.086;2022-12-29T01:42:45;7.00;;;6.40;;
52414;SDS011;38340;52.964;6.086;2022-12-29T01:45:12;7.07;;;6.40;;
52414;SDS011;38340;52.964;6.086;2022-12-29T01:47:43;7.05;;;6.45;;
52414;SDS011;38340;52.964;6.086;2022-12-29T01:50:17;7.22;;;6.30;;
52414;SDS011;38340;52.964;6.086;2022-12-29T01:52:56;6.78;;;6.10;;
52414;SDS011;38340;52.964;6.086;2022-12-29T01:55:26;7.20;;;6.25;;
52414;SDS011;38340;52.964;6.086;2022-12-29T01:57:54;6.30;;;5.75;;
52414;SDS011;38340;52.964;6.086;2022-12-29T02:00:25;9.82;;;5.78;;
52414;SDS011;38340;52.964;6.086;2022-12-29T02:02:52;6.15;;;5.65;;
52414;SDS011;38340;52.964;6.086;2022-12-29T02:08:08;6.47;;;5.88;;
52414;SDS011;38340;52.964;6.086;2022-12-29T02:10:36;6.07;;;5.57;;
52414;SDS011;38340;52.964;6.086;2022-12-29T02:13:02;6.00;;;5.40;;
52414;SDS011;38340;52.964;6.086;2022-12-29T02:26:46;5.85;;;5.25;;
52414;SDS011;38340;52.964;6.086;2022-12-29T02:40:55;5.68;;;5.15;;
52414;SDS011;38340;52.964;6.086;2022-12-29T02:43:35;5.43;;;4.95;;
52414;SDS011;38340;52.964;6.086;2022-12-29T02:46:12;5.68;;;5.18;;
52414;SDS011;38340;52.964;6.086;2022-12-29T02:49:15;5.95;;;5.22;;
52414;SDS011;38340;52.964;6.086;2022-12-29T02:54:20;5.63;;;5.13;;
52414;SDS011;38340;52.964;6.086;2022-12-29T02:57:09;5.97;;;5.30;;
52414;SDS011;38340;52.964;6.086;2022-12-29T02:59:35;6.50;;;5.63;;
52414;SDS011;38340;52.964;6.086;2022-12-29T03:02:13;5.90;;;5.40;;
52414;SDS011;38340;52.964;6.086;2022-12-29T03:23:40;5.57;;;4.68;;
52414;SDS011;38340;52.964;6.086;2022-12-29T03:26:10;5.20;;;4.65;;
52414;SDS011;38340;52.964;6.086;2022-12-29T03:28:43;5.53;;;4.80;;
52414;SDS011;38340;52.964;6.086;2022-12-29T03:33:39;5.95;;;4.60;;
52414;SDS011;38340;52.964;6.086;2022-12-29T03:36:09;5.30;;;4.90;;
52414;SDS011;38340;52.964;6.086;2022-12-29T03:38:46;5.10;;;4.70;;
52414;SDS011;38340;52.964;6.086;2022-12-29T03:41:36;5.38;;;4.88;;
52414;SDS011;38340;52.964;6.086;2022-12-29T03:44:08;5.78;;;4.78;;
52414;SDS011;38340;52.964;6.086;2022-12-29T03:46:34;5.20;;;4.80;;
52414;SDS011;38340;52.964;6.086;2022-12-29T03:49:00;5.95;;;4.80;;
52414;SDS011;38340;52.964;6.086;2022-12-29T03:51:26;6.78;;;4.80;;
52414;SDS011;38340;52.964;6.086;2022-12-29T03:53:51;7.88;;;4.97;;
52414;SDS011;38340;52.964;6.086;2022-12-29T03:56:17;8.02;;;5.18;;
52414;SDS011;38340;52.964;6.086;2022-12-29T03:58:43;6.28;;;4.85;;
52414;SDS011;38340;52.964;6.086;2022-12-29T04:01:08;4.85;;;4.20;;
52414;SDS011;38340;52.964;6.086;2022-12-29T04:03:34;4.80;;;4.40;;
52414;SDS011;38340;52.964;6.086;2022-12-29T04:06:00;7.03;;;4.65;;
52414;SDS011;38340;52.964;6.086;2022-12-29T04:08:25;6.80;;;4.60;;
52414;SDS011;38340;52.964;6.086;2022-12-29T04:10:51;5.63;;;4.97;;
52414;SDS011;38340;52.964;6.086;2022-12-29T04:13:17;8.80;;;5.15;;
52414;SDS011;38340;52.964;6.086;2022-12-29T04:15:43;6.07;;;4.63;;
52414;SDS011;38340;52.964;6.086;2022-12-29T04:18:10;7.85;;;4.35;;
52414;SDS011;38340;52.964;6.086;2022-12-29T04:20:36;9.20;;;5.00;;
52414;SDS011;38340;52.964;6.086;2022-12-29T04:23:20;7.68;;;4.72;;
52414;SDS011;38340;52.964;6.086;2022-12-29T04:25:46;7.63;;;4.78;;
52414;SDS011;38340;52.964;6.086;2022-12-29T04:28:13;10.95;;;5.90;;
52414;SDS011;38340;52.964;6.086;2022-12-29T04:30:39;7.68;;;4.85;;
52414;SDS011;38340;52.964;6.086;2022-12-29T04:33:05;6.35;;;5.00;;
52414;SDS011;38340;52.964;6.086;2022-12-29T04:35:30;5.50;;;4.97;;
52414;SDS011;38340;52.964;6.086;2022-12-29T04:37:56;7.20;;;5.43;;
52414;SDS011;38340;52.964;6.086;2022-12-29T04:40:22;6.38;;;5.28;;
52414;SDS011;38340;52.964;6.086;2022-12-29T04:42:48;7.28;;;5.10;;
52414;SDS011;38340;52.964;6.086;2022-12-29T04:45:14;7.40;;;5.35;;
52414;SDS011;38340;52.964;6.086;2022-12-29T04:47:40;6.60;;;5.32;;
52414;SDS011;38340;52.964;6.086;2022-12-29T04:50:06;11.30;;;6.03;;
52414;SDS011;38340;52.964;6.086;2022-12-29T04:52:32;10.00;;;6.03;;
52414;SDS011;38340;52.964;6.086;2022-12-29T04:54:58;6.30;;;5.57;;
52414;SDS011;38340;52.964;6.086;2022-12-29T04:57:24;8.48;;;5.28;;
52414;SDS011;38340;52.964;6.086;2022-12-29T04:59:49;11.30;;;5.72;;
52414;SDS011;38340;52.964;6.086;2022-12-29T05:02:15;7.88;;;6.07;;
52414;SDS011;38340;52.964;6.086;2022-12-29T05:04:41;7.40;;;5.78;;
52414;SDS011;38340;52.964;6.086;2022-12-29T05:07:07;10.75;;;5.75;;
52414;SDS011;38340;52.964;6.086;2022-12-29T05:09:33;9.05;;;6.00;;
52414;SDS011;38340;52.964;6.086;2022-12-29T05:11:59;9.40;;;5.95;;
52414;SDS011;38340;52.964;6.086;2022-12-29T05:14:25;12.23;;;5.85;;
52414;SDS011;38340;52.964;6.086;2022-12-29T05:16:51;12.48;;;6.18;;
52414;SDS011;38340;52.964;6.086;2022-12-29T05:19:16;11.43;;;6.38;;
52414;SDS011;38340;52.964;6.086;2022-12-29T05:21:42;7.07;;;5.28;;
52414;SDS011;38340;52.964;6.086;2022-12-29T05:24:08;12.00;;;6.80;;
52414;SDS011;38340;52.964;6.086;2022-12-29T05:26:34;10.35;;;6.00;;
52414;SDS011;38340;52.964;6.086;2022-12-29T05:29:00;11.02;;;5.93;;
52414;SDS011;38340;52.964;6.086;2022-12-29T05:31:26;10.88;;;6.20;;
52414;SDS011;38340;52.964;6.086;2022-12-29T05:33:52;10.00;;;6.28;;
52414;SDS011;38340;52.964;6.086;2022-12-29T05:36:18;9.65;;;5.65;;
52414;SDS011;38340;52.964;6.086;2022-12-29T05:38:44;15.48;;;6.57;;
52414;SDS011;38340;52.964;6.086;2022-12-29T05:41:10;10.27;;;5.65;;
52414;SDS011;38340;52.964;6.086;2022-12-29T05:43:35;10.18;;;5.93;;
52414;SDS011;38340;52.964;6.086;2022-12-29T05:46:01;10.70;;;6.57;;
52414;SDS011;38340;52.964;6.086;2022-12-29T05:48:27;12.15;;;6.40;;
52414;SDS011;38340;52.964;6.086;2022-12-29T05:50:53;12.10;;;6.43;;
52414;SDS011;38340;52.964;6.086;2022-12-29T05:53:19;11.80;;;6.30;;
52414;SDS011;38340;52.964;6.086;2022-12-29T05:55:48;12.38;;;6.28;;
52414;SDS011;38340;52.964;6.086;2022-12-29T05:58:15;7.22;;;5.72;;
52414;SDS011;38340;52.964;6.086;2022-12-29T06:00:41;11.73;;;6.43;;
52414;SDS011;38340;52.964;6.086;2022-12-29T06:03:07;14.05;;;6.10;;
52414;SDS011;38340;52.964;6.086;2022-12-29T06:05:33;9.40;;;5.63;;
52414;SDS011;38340;52.964;6.086;2022-12-29T06:07:58;9.60;;;5.45;;
52414;SDS011;38340;52.964;6.086;2022-12-29T06:10:24;11.80;;;4.82;;
52414;SDS011;38340;52.964;6.086;2022-12-29T06:12:50;14.45;;;4.80;;
52414;SDS011;38340;52.964;6.086;2022-12-29T06:15:16;15.55;;;4.90;;
52414;SDS011;38340;52.964;6.086;2022-12-29T06:17:42;17.30;;;4.78;;
52414;SDS011;38340;52.964;6.086;2022-12-29T06:20:08;18.73;;;4.85;;
52414;SDS011;38340;52.964;6.086;2022-12-29T06:22:35;15.30;;;4.30;;
52414;SDS011;38340;52.964;6.086;2022-12-29T06:25:01;15.27;;;3.85;;
52414;SDS011;38340;52.964;6.086;2022-12-29T06:27:27;18.45;;;3.88;;
52414;SDS011;38340;52.964;6.086;2022-12-29T06:29:53;9.43;;;3.33;;
52414;SDS011;38340;52.964;6.086;2022-12-29T06:32:19;12.85;;;3.13;;
52414;SDS011;38340;52.964;6.086;2022-12-29T06:34:45;13.52;;;3.65;;
52414;SDS011;38340;52.964;6.086;2022-12-29T06:37:10;15.80;;;3.35;;
52414;SDS011;38340;52.964;6.086;2022-12-29T06:39:36;14.75;;;3.35;;
52414;SDS011;38340;52.964;6.086;2022-12-29T06:42:02;7.47;;;3.60;;
52414;SDS011;38340;52.964;6.086;2022-12-29T06:44:28;15.43;;;3.90;;
52414;SDS011;38340;52.964;6.086;2022-12-29T06:46:54;11.27;;;3.28;;
52414;SDS011;38340;52.964;6.086;2022-12-29T06:49:20;11.63;;;2.97;;
52414;SDS011;38340;52.964;6.086;2022-12-29T06:51:46;12.57;;;3.40;;
52414;SDS011;38340;52.964;6.086;2022-12-29T06:54:12;14.60;;;3.30;;
52414;SDS011;38340;52.964;6.086;2022-12-29T06:56:38;10.43;;;3.85;;
52414;SDS011;38340;52.964;6.086;2022-12-29T06:59:03;12.10;;;3.40;;
52414;SDS011;38340;52.964;6.086;2022-12-29T07:01:30;12.13;;;3.70;;
52414;SDS011;38340;52.964;6.086;2022-12-29T07:03:56;8.10;;;3.08;;
52414;SDS011;38340;52.964;6.086;2022-12-29T07:06:22;15.73;;;3.75;;
52414;SDS011;38340;52.964;6.086;2022-12-29T07:08:48;13.15;;;3.20;;
52414;SDS011;38340;52.964;6.086;2022-12-29T07:11:14;10.45;;;3.63;;
52414;SDS011;38340;52.964;6.086;2022-12-29T07:13:39;9.30;;;3.10;;
52414;SDS011;38340;52.964;6.086;2022-12-29T07:16:09;9.70;;;3.05;;
52414;SDS011;38340;52.964;6.086;2022-12-29T07:18:35;11.02;;;3.33;;
52414;SDS011;38340;52.964;6.086;2022-12-29T07:21:01;16.52;;;4.13;;
52414;SDS011;38340;52.964;6.086;2022-12-29T07:23:28;11.98;;;2.97;;
52414;SDS011;38340;52.964;6.086;2022-12-29T07:26:04;9.57;;;3.33;;
52414;SDS011;38340;52.964;6.086;2022-12-29T07:28:31;12.88;;;4.15;;
52414;SDS011;38340;52.964;6.086;2022-12-29T07:30:58;9.60;;;3.42;;
52414;SDS011;38340;52.964;6.086;2022-12-29T07:33:24;10.65;;;4.30;;
52414;SDS011;38340;52.964;6.086;2022-12-29T07:35:50;10.50;;;3.85;;
52414;SDS011;38340;52.964;6.086;2022-12-29T07:38:16;15.18;;;2.75;;
52414;SDS011;38340;52.964;6.086;2022-12-29T07:40:42;10.55;;;3.60;;
52414;SDS011;38340;52.964;6.086;2022-12-29T07:43:08;15.27;;;3.50;;
52414;SDS011;38340;52.964;6.086;2022-12-29T07:45:34;13.25;;;3.40;;
52414;SDS011;38340;52.964;6.086;2022-12-29T07:47:59;13.52;;;3.88;;
52414;SDS011;38340;52.964;6.086;2022-12-29T07:50:27;14.40;;;3.83;;
52414;SDS011;38340;52.964;6.086;2022-12-29T07:52:53;14.10;;;3.92;;
52414;SDS011;38340;52.964;6.086;2022-12-29T07:55:19;16.30;;;3.78;;
52414;SDS011;38340;52.964;6.086;2022-12-29T07:57:44;19.27;;;3.88;;
52414;SDS011;38340;52.964;6.086;2022-12-29T08:00:10;16.13;;;3.72;;
52414;SDS011;38340;52.964;6.086;2022-12-29T08:02:36;19.77;;;4.85;;
52414;SDS011;38340;52.964;6.086;2022-12-29T08:05:02;15.45;;;3.67;;
52414;SDS011;38340;52.964;6.086;2022-12-29T08:07:28;16.83;;;4.50;;
52414;SDS011;38340;52.964;6.086;2022-12-29T08:09:54;13.73;;;3.55;;
52414;SDS011;38340;52.964;6.086;2022-12-29T08:12:19;12.70;;;3.63;;
52414;SDS011;38340;52.964;6.086;2022-12-29T08:14:45;14.02;;;3.33;;
52414;SDS011;38340;52.964;6.086;2022-12-29T08:17:11;13.90;;;3.92;;
52414;SDS011;38340;52.964;6.086;2022-12-29T08:19:37;13.15;;;3.60;;
52414;SDS011;38340;52.964;6.086;2022-12-29T08:22:02;12.48;;;3.78;;
52414;SDS011;38340;52.964;6.086;2022-12-29T08:24:28;13.68;;;4.13;;
52414;SDS011;38340;52.964;6.086;2022-12-29T08:26:54;16.40;;;4.63;;
52414;SDS011;38340;52.964;6.086;2022-12-29T08:29:19;12.02;;;3.67;;
52414;SDS011;38340;52.964;6.086;2022-12-29T08:31:46;17.98;;;4.45;;
52414;SDS011;38340;52.964;6.086;2022-12-29T08:34:12;17.80;;;4.30;;
52414;SDS011;38340;52.964;6.086;2022-12-29T08:36:38;15.05;;;3.67;;
52414;SDS011;38340;52.964;6.086;2022-12-29T08:39:04;18.50;;;4.72;;
52414;SDS011;38340;52.964;6.086;2022-12-29T08:41:29;14.77;;;4.88;;
52414;SDS011;38340;52.964;6.086;2022-12-29T08:43:55;14.48;;;4.15;;
52414;SDS011;38340;52.964;6.086;2022-12-29T08:46:21;16.45;;;4.53;;
52414;SDS011;38340;52.964;6.086;2022-12-29T08:48:47;15.75;;;4.72;;
52414;SDS011;38340;52.964;6.086;2022-12-29T08:51:13;23.73;;;8.13;;
52414;SDS011;38340;52.964;6.086;2022-12-29T08:53:39;18.58;;;3.95;;
52414;SDS011;38340;52.964;6.086;2022-12-29T08:56:05;15.30;;;4.68;;
52414;SDS011;38340;52.964;6.086;2022-12-29T08:58:31;11.18;;;4.65;;
52414;SDS011;38340;52.964;6.086;2022-12-29T09:00:57;18.20;;;4.50;;
52414;SDS011;38340;52.964;6.086;2022-12-29T09:03:23;13.55;;;3.97;;
52414;SDS011;38340;52.964;6.086;2022-12-29T09:05:50;16.50;;;3.95;;
52414;SDS011;38340;52.964;6.086;2022-12-29T09:08:17;11.50;;;4.35;;
52414;SDS011;38340;52.964;6.086;2022-12-29T09:10:43;12.30;;;3.88;;
52414;SDS011;38340;52.964;6.086;2022-12-29T09:13:11;14.35;;;4.10;;
52414;SDS011;38340;52.964;6.086;2022-12-29T09:15:38;16.80;;;3.60;;
52414;SDS011;38340;52.964;6.086;2022-12-29T09:18:04;13.13;;;4.03;;
52414;SDS011;38340;52.964;6.086;2022-12-29T09:20:31;19.33;;;4.80;;
52414;SDS011;38340;52.964;6.086;2022-12-29T09:22:57;15.07;;;4.70;;
52414;SDS011;38340;52.964;6.086;2022-12-29T09:25:22;16.42;;;3.83;;
52414;SDS011;38340;52.964;6.086;2022-12-29T09:27:49;12.18;;;3.70;;
52414;SDS011;38340;52.964;6.086;2022-12-29T09:30:17;14.05;;;3.30;;
52414;SDS011;38340;52.964;6.086;2022-12-29T09:32:43;12.82;;;3.60;;
52414;SDS011;38340;52.964;6.086;2022-12-29T09:35:09;24.75;;;4.70;;
52414;SDS011;38340;52.964;6.086;2022-12-29T09:37:35;18.25;;;3.63;;
52414;SDS011;38340;52.964;6.086;2022-12-29T09:40:01;11.20;;;3.80;;
52414;SDS011;38340;52.964;6.086;2022-12-29T09:42:41;10.18;;;2.97;;
52414;SDS011;38340;52.964;6.086;2022-12-29T09:45:24;13.45;;;3.80;;
52414;SDS011;38340;52.964;6.086;2022-12-29T09:47:57;15.40;;;3.97;;
52414;SDS011;38340;52.964;6.086;2022-12-29T09:50:24;13.68;;;3.35;;
52414;SDS011;38340;52.964;6.086;2022-12-29T09:53:41;12.20;;;4.07;;
52414;SDS011;38340;52.964;6.086;2022-12-29T09:55:53;18.88;;;3.92;;
52414;SDS011;38340;52.964;6.086;2022-12-29T10:04:28;16.38;;;4.68;;
52414;SDS011;38340;52.964;6.086;2022-12-29T10:06:55;15.57;;;4.68;;
52414;SDS011;38340;52.964;6.086;2022-12-29T10:09:46;10.65;;;4.38;;
52414;SDS011;38340;52.964;6.086;2022-12-29T10:15:23;14.18;;;4.38;;
52414;SDS011;38340;52.964;6.086;2022-12-29T10:17:58;18.25;;;6.30;;
52414;SDS011;38340;52.964;6.086;2022-12-29T10:20:52;16.58;;;5.65;;
52414;SDS011;38340;52.964;6.086;2022-12-29T10:23:31;16.25;;;5.00;;
52414;SDS011;38340;52.964;6.086;2022-12-29T10:26:13;17.63;;;4.05;;
52414;SDS011;38340;52.964;6.086;2022-12-29T10:28:43;15.23;;;4.78;;
52414;SDS011;38340;52.964;6.086;2022-12-29T10:31:54;12.07;;;3.75;;
52414;SDS011;38340;52.964;6.086;2022-12-29T10:34:23;13.88;;;3.95;;
52414;SDS011;38340;52.964;6.086;2022-12-29T10:39:32;13.25;;;4.32;;
52414;SDS011;38340;52.964;6.086;2022-12-29T10:42:04;16.60;;;4.53;;
52414;SDS011;38340;52.964;6.086;2022-12-29T10:44:38;11.90;;;4.25;;
52414;SDS011;38340;52.964;6.086;2022-12-29T10:47:06;14.77;;;4.47;;
52414;SDS011;38340;52.964;6.086;2022-12-29T10:49:37;16.00;;;4.53;;
52414;SDS011;38340;52.964;6.086;2022-12-29T10:52:09;14.98;;;4.38;;
52414;SDS011;38340;52.964;6.086;2022-12-29T10:57:18;24.08;;;5.38;;
52414;SDS011;38340;52.964;6.086;2022-12-29T10:59:54;20.45;;;5.03;;
52414;SDS011;38340;52.964;6.086;2022-12-29T11:02:55;19.38;;;4.28;;
52414;SDS011;38340;52.964;6.086;2022-12-29T11:05:41;19.15;;;4.70;;
52414;SDS011;38340;52.964;6.086;2022-12-29T11:08:19;17.02;;;4.35;;
52414;SDS011;38340;52.964;6.086;2022-12-29T11:10:47;16.00;;;5.10;;
52414;SDS011;38340;52.964;6.086;2022-12-29T11:13:31;18.08;;;5.38;;
52414;SDS011;38340;52.964;6.086;2022-12-29T11:15:58;28.03;;;9.90;;
52414;SDS011;38340;52.964;6.086;2022-12-29T11:18:46;32.50;;;13.65;;
52414;SDS011;38340;52.964;6.086;2022-12-29T11:24:05;24.52;;;9.00;;
52414;SDS011;38340;52.964;6.086;2022-12-29T11:26:45;17.38;;;6.32;;
52414;SDS011;38340;52.964;6.086;2022-12-29T11:29:21;18.83;;;5.38;;
52414;SDS011;38340;52.964;6.086;2022-12-29T11:31:53;21.17;;;5.80;;
52414;SDS011;38340;52.964;6.086;2022-12-29T11:34:30;19.60;;;5.25;;
52414;SDS011;38340;52.964;6.086;2022-12-29T11:37:03;22.00;;;5.18;;
52414;SDS011;38340;52.964;6.086;2022-12-29T11:42:34;20.50;;;6.10;;
52414;SDS011;38340;52.964;6.086;2022-12-29T11:45:15;19.15;;;5.43;;
52414;SDS011;38340;52.964;6.086;2022-12-29T11:47:44;25.90;;;6.38;;
52414;SDS011;38340;52.964;6.086;2022-12-29T11:50:17;25.17;;;5.28;;
52414;SDS011;38340;52.964;6.086;2022-12-29T11:52:46;21.67;;;4.78;;
52414;SDS011;38340;52.964;6.086;2022-12-29T11:55:18;21.35;;;5.18;;
52414;SDS011;38340;52.964;6.086;2022-12-29T11:57:47;20.00;;;4.63;;
52414;SDS011;38340;52.964;6.086;2022-12-29T12:02:42;23.88;;;5.07;;
52414;SDS011;38340;52.964;6.086;2022-12-29T12:07:54;17.83;;;5.32;;
52414;SDS011;38340;52.964;6.086;2022-12-29T12:10:44;21.65;;;5.07;;
52414;SDS011;38340;52.964;6.086;2022-12-29T12:13:20;18.38;;;5.07;;
52414;SDS011;38340;52.964;6.086;2022-12-29T12:15:52;25.67;;;5.75;;
52414;SDS011;38340;52.964;6.086;2022-12-29T12:18:41;20.25;;;5.30;;
52414;SDS011;38340;52.964;6.086;2022-12-29T12:27:15;16.73;;;5.28;;
52414;SDS011;38340;52.964;6.086;2022-12-29T12:29:59;16.50;;;3.83;;
52414;SDS011;38340;52.964;6.086;2022-12-29T12:43:39;12.98;;;3.83;;
52414;SDS011;38340;52.964;6.086;2022-12-29T12:59:40;12.15;;;3.40;;
52414;SDS011;38340;52.964;6.086;2022-12-29T13:08:45;9.15;;;3.13;;
52414;SDS011;38340;52.964;6.086;2022-12-29T13:14:30;10.07;;;2.65;;
52414;SDS011;38340;52.964;6.086;2022-12-29T13:17:29;15.75;;;3.28;;
52414;SDS011;38340;52.964;6.086;2022-12-29T13:26:00;12.32;;;3.50;;
52414;SDS011;38340;52.964;6.086;2022-12-29T13:28:41;10.63;;;2.92;;
52414;SDS011;38340;52.964;6.086;2022-12-29T13:36:58;12.40;;;3.58;;
52414;SDS011;38340;52.964;6.086;2022-12-29T13:39:39;17.33;;;5.07;;
52414;SDS011;38340;52.964;6.086;2022-12-29T13:42:08;21.08;;;6.47;;
52414;SDS011;38340;52.964;6.086;2022-12-29T13:44:41;14.07;;;4.25;;
52414;SDS011;38340;52.964;6.086;2022-12-29T13:49:54;28.33;;;11.15;;
52414;SDS011;38340;52.964;6.086;2022-12-29T13:58:03;16.42;;;5.68;;
52414;SDS011;38340;52.964;6.086;2022-12-29T14:00:57;11.02;;;3.33;;
52414;SDS011;38340;52.964;6.086;2022-12-29T14:08:55;13.38;;;3.83;;
52414;SDS011;38340;52.964;6.086;2022-12-29T14:11:28;13.40;;;4.30;;
52414;SDS011;38340;52.964;6.086;2022-12-29T14:14:19;15.45;;;4.15;;
52414;SDS011;38340;52.964;6.086;2022-12-29T14:16:47;10.52;;;3.75;;
52414;SDS011;38340;52.964;6.086;2022-12-29T14:19:18;15.15;;;4.15;;
52414;SDS011;38340;52.964;6.086;2022-12-29T14:21:58;18.88;;;4.75;;
52414;SDS011;38340;52.964;6.086;2022-12-29T14:26:52;14.88;;;3.38;;
52414;SDS011;38340;52.964;6.086;2022-12-29T14:31:50;10.77;;;3.10;;
52414;SDS011;38340;52.964;6.086;2022-12-29T14:44:34;12.88;;;4.63;;
52414;SDS011;38340;52.964;6.086;2022-12-29T14:47:36;10.85;;;3.47;;
52414;SDS011;38340;52.964;6.086;2022-12-29T14:50:06;12.60;;;3.40;;
52414;SDS011;38340;52.964;6.086;2022-12-29T14:52:33;12.55;;;3.60;;
52414;SDS011;38340;52.964;6.086;2022-12-29T14:57:41;11.25;;;3.35;;
52414;SDS011;38340;52.964;6.086;2022-12-29T15:00:21;16.10;;;3.80;;
52414;SDS011;38340;52.964;6.086;2022-12-29T15:03:02;12.63;;;3.72;;
52414;SDS011;38340;52.964;6.086;2022-12-29T15:05:35;19.08;;;4.05;;
52414;SDS011;38340;52.964;6.086;2022-12-29T15:08:07;11.73;;;3.65;;
52414;SDS011;38340;52.964;6.086;2022-12-29T15:10:37;7.32;;;3.08;;
52414;SDS011;38340;52.964;6.086;2022-12-29T15:13:13;11.45;;;4.18;;
52414;SDS011;38340;52.964;6.086;2022-12-29T15:15:42;15.95;;;4.75;;
52414;SDS011;38340;52.964;6.086;2022-12-29T15:18:28;10.45;;;3.55;;
52414;SDS011;38340;52.964;6.086;2022-12-29T15:21:05;14.93;;;4.15;;
52414;SDS011;38340;52.964;6.086;2022-12-29T15:23:32;9.75;;;3.25;;
52414;SDS011;38340;52.964;6.086;2022-12-29T15:26:02;15.82;;;3.97;;
52414;SDS011;38340;52.964;6.086;2022-12-29T15:28:51;18.02;;;4.45;;
52414;SDS011;38340;52.964;6.086;2022-12-29T15:31:21;12.55;;;5.55;;
52414;SDS011;38340;52.964;6.086;2022-12-29T15:33:53;23.17;;;6.47;;
52414;SDS011;38340;52.964;6.086;2022-12-29T15:36:27;27.98;;;11.57;;
52414;SDS011;38340;52.964;6.086;2022-12-29T15:38:54;15.68;;;5.45;;
52414;SDS011;38340;52.964;6.086;2022-12-29T15:44:29;12.60;;;5.18;;
52414;SDS011;38340;52.964;6.086;2022-12-29T15:47:04;19.20;;;6.25;;
52414;SDS011;38340;52.964;6.086;2022-12-29T15:49:31;20.17;;;5.05;;
52414;SDS011;38340;52.964;6.086;2022-12-29T15:51:58;13.55;;;4.32;;
52414;SDS011;38340;52.964;6.086;2022-12-29T15:54:24;13.15;;;4.60;;
52414;SDS011;38340;52.964;6.086;2022-12-29T15:56:54;13.02;;;4.70;;
52414;SDS011;38340;52.964;6.086;2022-12-29T16:01:53;12.13;;;4.35;;
52414;SDS011;38340;52.964;6.086;2022-12-29T16:04:23;10.18;;;3.65;;
52414;SDS011;38340;52.964;6.086;2022-12-29T16:06:58;13.10;;;4.45;;
52414;SDS011;38340;52.964;6.086;2022-12-29T16:09:34;9.50;;;3.53;;
52414;SDS011;38340;52.964;6.086;2022-12-29T16:12:06;11.85;;;4.00;;
52414;SDS011;38340;52.964;6.086;2022-12-29T16:14:41;14.75;;;3.28;;
52414;SDS011;38340;52.964;6.086;2022-12-29T16:17:14;12.25;;;3.65;;
52414;SDS011;38340;52.964;6.086;2022-12-29T16:19:48;9.82;;;3.40;;
52414;SDS011;38340;52.964;6.086;2022-12-29T16:22:30;12.43;;;3.00;;
52414;SDS011;38340;52.964;6.086;2022-12-29T16:25:18;15.93;;;4.30;;
52414;SDS011;38340;52.964;6.086;2022-12-29T16:30:28;15.02;;;3.75;;
52414;SDS011;38340;52.964;6.086;2022-12-29T16:32:59;16.45;;;4.47;;
52414;SDS011;38340;52.964;6.086;2022-12-29T16:35:27;9.32;;;4.18;;
52414;SDS011;38340;52.964;6.086;2022-12-29T16:40:59;7.70;;;3.55;;
52414;SDS011;38340;52.964;6.086;2022-12-29T16:43:30;14.57;;;6.05;;
52414;SDS011;38340;52.964;6.086;2022-12-29T16:51:00;9.05;;;2.80;;
52414;SDS011;38340;52.964;6.086;2022-12-29T16:56:23;7.60;;;3.00;;
52414;SDS011;38340;52.964;6.086;2022-12-29T16:59:38;9.35;;;3.20;;
52414;SDS011;38340;52.964;6.086;2022-12-29T17:01:58;14.15;;;3.20;;
52414;SDS011;38340;52.964;6.086;2022-12-29T17:04:28;11.60;;;2.92;;
52414;SDS011;38340;52.964;6.086;2022-12-29T17:06:54;10.70;;;3.28;;
52414;SDS011;38340;52.964;6.086;2022-12-29T17:09:21;10.48;;;3.15;;
52414;SDS011;38340;52.964;6.086;2022-12-29T17:11:49;14.23;;;3.13;;
52414;SDS011;38340;52.964;6.086;2022-12-29T17:17:01;10.98;;;4.00;;
52414;SDS011;38340;52.964;6.086;2022-12-29T17:19:30;12.80;;;5.30;;
52414;SDS011;38340;52.964;6.086;2022-12-29T17:22:01;25.13;;;6.22;;
52414;SDS011;38340;52.964;6.086;2022-12-29T17:24:27;19.42;;;4.90;;
52414;SDS011;38340;52.964;6.086;2022-12-29T17:26:54;13.27;;;4.88;;
52414;SDS011;38340;52.964;6.086;2022-12-29T17:29:38;15.50;;;6.07;;
52414;SDS011;38340;52.964;6.086;2022-12-29T17:32:09;16.00;;;5.93;;
52414;SDS011;38340;52.964;6.086;2022-12-29T17:34:38;12.10;;;4.35;;
52414;SDS011;38340;52.964;6.086;2022-12-29T17:37:23;14.10;;;4.68;;
52414;SDS011;38340;52.964;6.086;2022-12-29T17:39:51;17.90;;;5.95;;
52414;SDS011;38340;52.964;6.086;2022-12-29T17:42:17;18.70;;;5.35;;
52414;SDS011;38340;52.964;6.086;2022-12-29T17:44:43;22.63;;;4.97;;
52414;SDS011;38340;52.964;6.086;2022-12-29T17:47:09;12.45;;;5.82;;
52414;SDS011;38340;52.964;6.086;2022-12-29T17:49:36;16.33;;;5.97;;
52414;SDS011;38340;52.964;6.086;2022-12-29T17:52:02;21.83;;;6.40;;
52414;SDS011;38340;52.964;6.086;2022-12-29T17:54:29;15.40;;;4.85;;
52414;SDS011;38340;52.964;6.086;2022-12-29T17:56:55;15.05;;;4.68;;
52414;SDS011;38340;52.964;6.086;2022-12-29T17:59:21;18.58;;;5.65;;